KPIT METAR and TAF | Updated Today

KPIT METAR

Pittsburgh International Airport

Observation time: 3 min. ago

KPIT 301751Z 25009G17KT 10SM BKN045 BKN065 06/M02 A2988 RMK AO2 SLP136 T00561022 10056 21006 50002

Need help? Read our tutorial on how to read METARs or read the parsed version below.

Pittsburgh International Airport (KPIT) METAR

  • Weather conditions on Tue, 30 Nov 2021 17:51:00 +0000 (3 min. ago):
  • Present conditions: Dry
  • Clouds: Broken sky at 1372 meters; broken sky at 1981 meters
  • Visibility: 16093 meters
  • Wind: 250 degrees at 9 knots
  • Temperature: 6 celsius
  • Dew point: -2 celsius
  • Pressure: 29.88 inHg
  • Remarks: AO2 SLP136 T00561022 10056 21006 50002


Useful to know...

KPIT TAF

Pittsburgh International Airport

KPIT 301501Z 3015/0118 23010KT P6SM BKN045 FM010000 25005KT P6SM BKN035
Observation time: 2:53 hr. ago
Need help? Read our tutorial on how to read TAFs or read the parsed version below.

Parsed version of TAF for Pittsburgh International Airport (KPIT)

  • From 30 November at 15:00 UTC, to day 01 of the month at 18:00 UTC
  • Clouds: Broken sky at 1372 meters
  • Wind: 230 degrees at 10
  • From day 1 of the month at 00:00 UTC
  • Clouds: Broken sky at 1067 meters
  • Wind: 250 degrees at 5